CheckWX is a tool to help pilots better visualize weather data.  It is not intended as a substitute for an official pre-flight weather briefing.

21:03:38 UTC

KCQW METAR
Cheraw Municipal / Lynch Bellinger Field Airport
Cheraw, South Carolina, USA
Current

9 mins ago

KCQW 232055Z AUTO 22006KT 10SM CLR 31/20 A3015 RMK AO2
Observed
May-23 @ 20:55 UTC
Wind
  • 220° at 6 KTS
Visibility
10 SM
Flight Rules
VFR
Cloud Levels
  • Clear skies
Temperature
31°C / 88°F
Dewpoint
20°C / 68°F
Heat Index
33°C / 92°F
Humidity
52%
Altimeter
30.15" Hg
Pressure
1021.02 hPa
Previous

29 mins ago

KCQW 232035Z AUTO 24006KT 10SM CLR 31/20 A3016 RMK AO2
Observed
May-23 @ 20:35 UTC
Wind
  • 240° at 6 KTS
Visibility
10 SM
Flight Rules
VFR
Cloud Levels
  • Clear skies
Temperature
31°C / 88°F
Dewpoint
20°C / 68°F
Heat Index
33°C / 92°F
Humidity
52%
Altimeter
30.16" Hg
Pressure
1021.32 hPa
Previous

2 hours ago

KCQW 231915Z AUTO VRB06G11KT 10SM BKN090 31/20 A3020 RMK AO2
Observed
May-23 @ 19:15 UTC
Wind
  • Variable at 6 KTS
  • Gusting to 11 KTS
Visibility
10 SM
Flight Rules
VFR
Cloud Levels
  • Broken at 9,000' AGL
Temperature
31°C / 88°F
Dewpoint
20°C / 68°F
Heat Index
33°C / 92°F
Humidity
52%
Altimeter
30.2" Hg
Pressure
1022.72 hPa